sensor_id;sensor_type;location;lat;lon;timestamp;pressure;altitude;pressure_sealevel;temperature;humidity
7754;BME280;3921;42.266;23.122;2023-03-04T01:05:55;95093.00;;;4.75;87.76
7754;BME280;3921;42.266;23.122;2023-03-04T01:08:27;95520.19;;;7.48;88.49
7754;BME280;3921;42.266;23.122;2023-03-04T01:10:59;95634.09;;;8.28;87.80
7754;BME280;3921;42.266;23.122;2023-03-04T01:13:32;95154.88;;;5.22;87.70
7754;BME280;3921;42.266;23.122;2023-03-04T01:16:11;95251.59;;;5.63;87.64
7754;BME280;3921;42.266;23.122;2023-03-04T01:18:42;95154.78;;;5.16;87.67
7754;BME280;3921;42.266;23.122;2023-03-04T15:33:54;94865.78;;;8.09;70.19
7754;BME280;3921;42.266;23.122;2023-03-04T15:36:22;94820.22;;;7.55;69.94
7754;BME280;3921;42.266;23.122;2023-03-04T15:38:55;94866.78;;;7.82;70.84
7754;BME280;3921;42.266;23.122;2023-03-04T21:50:34;95020.16;;;7.73;83.28
7754;BME280;3921;42.266;23.122;2023-03-04T21:53:02;95241.72;;;9.18;83.91
7754;BME280;3921;42.266;23.122;2023-03-04T21:55:29;95138.38;;;8.58;84.54
7754;BME280;3921;42.266;23.122;2023-03-04T21:57:56;95143.44;;;8.52;84.38
7754;BME280;3921;42.266;23.122;2023-03-04T22:00:23;95129.25;;;8.56;84.52
7754;BME280;3921;42.266;23.122;2023-03-04T22:02:50;94933.63;;;7.16;83.87
7754;BME280;3921;42.266;23.122;2023-03-04T22:05:17;95120.09;;;8.45;84.15
7754;BME280;3921;42.266;23.122;2023-03-04T22:07:46;94735.75;;;6.07;83.90
7754;BME280;3921;42.266;23.122;2023-03-04T22:10:13;94955.22;;;7.44;84.07
7754;BME280;3921;42.266;23.122;2023-03-04T22:12:40;95160.97;;;8.50;83.92
7754;BME280;3921;42.266;23.122;2023-03-04T22:15:07;94670.06;;;5.71;83.65
7754;BME280;3921;42.266;23.122;2023-03-04T22:17:34;95037.66;;;7.86;84.16
7754;BME280;3921;42.266;23.122;2023-03-04T22:20:01;95085.94;;;8.14;83.45
7754;BME280;3921;42.266;23.122;2023-03-04T22:22:28;95138.41;;;8.54;83.82
7754;BME280;3921;42.266;23.122;2023-03-04T22:24:57;95065.97;;;8.00;83.71
7754;BME280;3921;42.266;23.122;2023-03-04T22:27:25;94911.16;;;7.13;83.20
7754;BME280;3921;42.266;23.122;2023-03-04T22:29:52;94846.31;;;6.72;83.26
7754;BME280;3921;42.266;23.122;2023-03-04T22:32:18;94916.19;;;7.02;83.59
7754;BME280;3921;42.266;23.122;2023-03-04T22:34:48;95230.84;;;9.16;83.66
7754;BME280;3921;42.266;23.122;2023-03-04T22:37:15;95115.91;;;8.43;84.20
7754;BME280;3921;42.266;23.122;2023-03-04T22:39:42;95057.59;;;8.16;83.72
7754;BME280;3921;42.266;23.122;2023-03-04T22:42:10;94895.38;;;6.86;83.54
7754;BME280;3921;42.266;23.122;2023-03-04T22:44:37;94783.94;;;6.36;84.32
7754;BME280;3921;42.266;23.122;2023-03-04T22:47:04;95220.88;;;9.07;85.15
7754;BME280;3921;42.266;23.122;2023-03-04T22:49:32;95050.13;;;8.04;85.61
7754;BME280;3921;42.266;23.122;2023-03-04T22:51:59;95104.28;;;8.27;85.64
7754;BME280;3921;42.266;23.122;2023-03-04T22:54:26;95060.09;;;8.15;85.32
7754;BME280;3921;42.266;23.122;2023-03-04T22:56:54;94912.78;;;7.32;84.41
7754;BME280;3921;42.266;23.122;2023-03-04T22:59:22;94892.81;;;7.28;84.60
7754;BME280;3921;42.266;23.122;2023-03-04T23:01:49;95037.59;;;8.10;85.09
7754;BME280;3921;42.266;23.122;2023-03-04T23:04:16;95091.69;;;8.51;84.50
7754;BME280;3921;42.266;23.122;2023-03-04T23:06:43;95109.16;;;8.66;84.13
7754;BME280;3921;42.266;23.122;2023-03-04T23:09:10;95085.81;;;8.58;83.62
7754;BME280;3921;42.266;23.122;2023-03-04T23:11:37;95212.38;;;9.34;83.38
7754;BME280;3921;42.266;23.122;2023-03-04T23:14:05;95085.88;;;8.46;84.29
7754;BME280;3921;42.266;23.122;2023-03-04T23:16:34;94893.69;;;7.14;84.64
7754;BME280;3921;42.266;23.122;2023-03-04T23:19:04;94782.28;;;6.40;84.63
7754;BME280;3921;42.266;23.122;2023-03-04T23:21:31;95201.59;;;9.20;84.82
7754;BME280;3921;42.266;23.122;2023-03-04T23:23:59;94759.84;;;6.34;84.30
7754;BME280;3921;42.266;23.122;2023-03-04T23:26:28;95204.16;;;9.09;85.21
7754;BME280;3921;42.266;23.122;2023-03-04T23:28:57;95119.25;;;8.42;84.98
7754;BME280;3921;42.266;23.122;2023-03-04T23:31:26;94797.25;;;6.51;84.56
7754;BME280;3921;42.266;23.122;2023-03-04T23:33:55;95039.38;;;7.75;84.89
7754;BME280;3921;42.266;23.122;2023-03-04T23:36:24;94961.03;;;7.62;85.10
7754;BME280;3921;42.266;23.122;2023-03-04T23:38:51;95094.22;;;8.40;85.03
7754;BME280;3921;42.266;23.122;2023-03-04T23:41:21;94802.25;;;6.40;84.89
7754;BME280;3921;42.266;23.122;2023-03-04T23:43:50;94924.44;;;7.32;85.64
7754;BME280;3921;42.266;23.122;2023-03-04T23:46:18;95119.22;;;8.51;85.61
7754;BME280;3921;42.266;23.122;2023-03-04T23:48:46;94976.06;;;7.57;85.68
7754;BME280;3921;42.266;23.122;2023-03-04T23:51:18;94986.00;;;7.71;87.00
7754;BME280;3921;42.266;23.122;2023-03-04T23:53:45;95134.22;;;8.60;86.51
7754;BME280;3921;42.266;23.122;2023-03-04T23:56:14;94944.44;;;7.45;86.86
7754;BME280;3921;42.266;23.122;2023-03-04T23:58:42;94833.81;;;6.53;87.01
